Suisun City, California
Current Conditions -  °F | °C
As of 3:58 AM on Sunday 23 Nov 2014 (Local Time) from KSUU Reporting Station
Few Clouds Few Clouds  
Wind Chill: 39°   Ceiling: Unl
Heat Index: 43°   Visibility: 10mi
Dew Point: 43°   Wind: 7mph
Humidity: 100%   Direction: 270°W
Pressure: 30.26"   Gusts: NA
Location:  38.24°N, 122.03°W
Report Text: KSUU 231158Z AUTO 27006KT 10SM FEW160 06/06 A3026 RMK AO2 SLP254 70032 T00610061 10107 20061 53005 $
Loading
Personal Weather Stations






























Interactive Weather Map New forecast layout! Learn more

10-Day Weather Forecast

Advertisements
Track Severe Weather on mobile